sensor_id;sensor_type;location;lat;lon;timestamp;pressure;altitude;pressure_sealevel;temperature;humidity
24962;BME280;12992;50.884;13.668;2024-01-16T00:01:51;95858.47;;;-1.14;100.00
24962;BME280;12992;50.884;13.668;2024-01-16T00:04:16;95853.13;;;-1.14;100.00
24962;BME280;12992;50.884;13.668;2024-01-16T00:06:42;95861.75;;;-1.12;100.00
24962;BME280;12992;50.884;13.668;2024-01-16T00:09:08;95863.00;;;-1.15;100.00
24962;BME280;12992;50.884;13.668;2024-01-16T00:11:33;95856.81;;;-1.15;100.00
24962;BME280;12992;50.884;13.668;2024-01-16T00:13:59;95860.38;;;-1.21;100.00
24962;BME280;12992;50.884;13.668;2024-01-16T00:16:24;95864.09;;;-1.22;100.00
24962;BME280;12992;50.884;13.668;2024-01-16T00:18:50;95864.50;;;-1.25;100.00
24962;BME280;12992;50.884;13.668;2024-01-16T00:21:15;95870.66;;;-1.25;100.00
24962;BME280;12992;50.884;13.668;2024-01-16T00:23:40;95861.34;;;-1.40;100.00
24962;BME280;12992;50.884;13.668;2024-01-16T00:26:06;95871.25;;;-1.48;100.00
24962;BME280;12992;50.884;13.668;2024-01-16T00:28:31;95868.00;;;-1.50;100.00
24962;BME280;12992;50.884;13.668;2024-01-16T00:30:57;95870.81;;;-1.45;100.00
24962;BME280;12992;50.884;13.668;2024-01-16T00:33:22;95892.34;;;-1.39;100.00
24962;BME280;12992;50.884;13.668;2024-01-16T00:35:48;95879.41;;;-1.43;100.00
24962;BME280;12992;50.884;13.668;2024-01-16T00:38:13;95884.00;;;-1.50;100.00
24962;BME280;12992;50.884;13.668;2024-01-16T00:40:38;95881.13;;;-1.48;100.00
24962;BME280;12992;50.884;13.668;2024-01-16T00:43:04;95881.34;;;-1.50;100.00
24962;BME280;12992;50.884;13.668;2024-01-16T00:45:29;95880.72;;;-1.52;100.00
24962;BME280;12992;50.884;13.668;2024-01-16T00:47:55;95895.69;;;-1.51;100.00
24962;BME280;12992;50.884;13.668;2024-01-16T00:50:20;95905.75;;;-1.46;100.00
24962;BME280;12992;50.884;13.668;2024-01-16T00:52:46;95891.56;;;-1.47;100.00
24962;BME280;12992;50.884;13.668;2024-01-16T00:55:11;95904.06;;;-1.40;100.00
24962;BME280;12992;50.884;13.668;2024-01-16T00:57:36;95909.41;;;-1.40;100.00
24962;BME280;12992;50.884;13.668;2024-01-16T01:00:02;95910.41;;;-1.42;100.00
24962;BME280;12992;50.884;13.668;2024-01-16T01:02:29;95910.63;;;-1.43;100.00
24962;BME280;12992;50.884;13.668;2024-01-16T01:04:54;95925.84;;;-1.44;100.00
24962;BME280;12992;50.884;13.668;2024-01-16T01:07:20;95924.00;;;-1.43;100.00
24962;BME280;12992;50.884;13.668;2024-01-16T01:09:45;95927.47;;;-1.43;100.00
24962;BME280;12992;50.884;13.668;2024-01-16T01:12:10;95927.47;;;-1.43;100.00
24962;BME280;12992;50.884;13.668;2024-01-16T01:14:35;95935.06;;;-1.39;100.00
24962;BME280;12992;50.884;13.668;2024-01-16T01:17:01;95934.44;;;-1.42;100.00
24962;BME280;12992;50.884;13.668;2024-01-16T01:19:26;95937.34;;;-1.43;100.00
24962;BME280;12992;50.884;13.668;2024-01-16T01:21:52;95937.97;;;-1.41;100.00
24962;BME280;12992;50.884;13.668;2024-01-16T01:24:17;95946.38;;;-1.44;100.00
24962;BME280;12992;50.884;13.668;2024-01-16T01:26:43;95939.84;;;-1.48;100.00
24962;BME280;12992;50.884;13.668;2024-01-16T01:29:09;95946.22;;;-1.49;100.00
24962;BME280;12992;50.884;13.668;2024-01-16T01:31:35;95941.28;;;-1.52;100.00
24962;BME280;12992;50.884;13.668;2024-01-16T01:34:00;95943.97;;;-1.52;100.00
24962;BME280;12992;50.884;13.668;2024-01-16T01:36:25;95941.91;;;-1.50;100.00
24962;BME280;12992;50.884;13.668;2024-01-16T01:38:51;95958.13;;;-1.52;100.00
24962;BME280;12992;50.884;13.668;2024-01-16T01:41:16;95948.69;;;-1.54;100.00
24962;BME280;12992;50.884;13.668;2024-01-16T01:43:42;95954.06;;;-1.61;100.00
24962;BME280;12992;50.884;13.668;2024-01-16T01:46:13;95971.91;;;-1.55;100.00
24962;BME280;12992;50.884;13.668;2024-01-16T01:48:41;95961.84;;;-1.59;100.00
24962;BME280;12992;50.884;13.668;2024-01-16T01:51:08;95967.81;;;-1.57;100.00
24962;BME280;12992;50.884;13.668;2024-01-16T01:53:34;95957.09;;;-1.51;100.00
24962;BME280;12992;50.884;13.668;2024-01-16T01:56:03;95978.41;;;-1.44;100.00
24962;BME280;12992;50.884;13.668;2024-01-16T01:58:29;95972.84;;;-1.43;100.00
24962;BME280;12992;50.884;13.668;2024-01-16T02:00:55;95963.41;;;-1.38;100.00
24962;BME280;12992;50.884;13.668;2024-01-16T02:03:23;95977.97;;;-1.34;100.00
24962;BME280;12992;50.884;13.668;2024-01-16T02:05:50;95974.25;;;-1.33;100.00
24962;BME280;12992;50.884;13.668;2024-01-16T02:08:16;95975.25;;;-1.28;100.00
24962;BME280;12992;50.884;13.668;2024-01-16T02:10:42;95982.00;;;-1.25;100.00
24962;BME280;12992;50.884;13.668;2024-01-16T02:13:09;95983.66;;;-1.24;100.00
24962;BME280;12992;50.884;13.668;2024-01-16T02:15:34;95973.59;;;-1.22;100.00
24962;BME280;12992;50.884;13.668;2024-01-16T02:18:00;95993.50;;;-1.25;100.00
24962;BME280;12992;50.884;13.668;2024-01-16T02:20:25;95996.00;;;-1.23;100.00
24962;BME280;12992;50.884;13.668;2024-01-16T02:22:52;95990.50;;;-1.35;100.00
24962;BME280;12992;50.884;13.668;2024-01-16T02:25:20;95996.69;;;-1.41;100.00
24962;BME280;12992;50.884;13.668;2024-01-16T02:27:46;95991.97;;;-1.39;100.00
24962;BME280;12992;50.884;13.668;2024-01-16T02:30:12;96006.28;;;-1.33;100.00
24962;BME280;12992;50.884;13.668;2024-01-16T02:32:37;96002.19;;;-1.29;100.00
24962;BME280;12992;50.884;13.668;2024-01-16T02:35:03;95996.03;;;-1.30;100.00
24962;BME280;12992;50.884;13.668;2024-01-16T02:37:30;96001.38;;;-1.30;100.00
24962;BME280;12992;50.884;13.668;2024-01-16T02:39:55;95996.25;;;-1.31;100.00
24962;BME280;12992;50.884;13.668;2024-01-16T02:42:20;96008.97;;;-1.33;100.00
24962;BME280;12992;50.884;13.668;2024-01-16T02:44:46;96008.34;;;-1.29;100.00
24962;BME280;12992;50.884;13.668;2024-01-16T02:47:11;96017.97;;;-1.28;100.00
24962;BME280;12992;50.884;13.668;2024-01-16T02:49:37;96024.34;;;-1.22;100.00
24962;BME280;12992;50.884;13.668;2024-01-16T02:52:02;96017.59;;;-1.31;100.00
24962;BME280;12992;50.884;13.668;2024-01-16T02:54:28;96020.69;;;-1.34;100.00
24962;BME280;12992;50.884;13.668;2024-01-16T02:56:53;96022.56;;;-1.42;100.00
24962;BME280;12992;50.884;13.668;2024-01-16T02:59:19;96031.19;;;-1.39;100.00
24962;BME280;12992;50.884;13.668;2024-01-16T03:01:44;96026.69;;;-1.39;100.00
24962;BME280;12992;50.884;13.668;2024-01-16T03:04:09;96034.25;;;-1.36;100.00
24962;BME280;12992;50.884;13.668;2024-01-16T03:06:35;96032.63;;;-1.37;100.00
24962;BME280;12992;50.884;13.668;2024-01-16T03:09:00;96038.78;;;-1.36;100.00
24962;BME280;12992;50.884;13.668;2024-01-16T03:11:25;96045.75;;;-1.35;100.00
24962;BME280;12992;50.884;13.668;2024-01-16T03:13:51;96057.25;;;-1.35;100.00
24962;BME280;12992;50.884;13.668;2024-01-16T03:16:18;96052.72;;;-1.34;100.00
24962;BME280;12992;50.884;13.668;2024-01-16T03:18:43;96059.09;;;-1.35;100.00
24962;BME280;12992;50.884;13.668;2024-01-16T03:21:10;96060.56;;;-1.39;100.00
24962;BME280;12992;50.884;13.668;2024-01-16T03:23:35;96056.03;;;-1.39;100.00
24962;BME280;12992;50.884;13.668;2024-01-16T03:26:01;96053.53;;;-1.34;100.00
24962;BME280;12992;50.884;13.668;2024-01-16T03:28:26;96057.25;;;-1.35;100.00
24962;BME280;12992;50.884;13.668;2024-01-16T03:30:52;96063.59;;;-1.29;100.00
24962;BME280;12992;50.884;13.668;2024-01-16T03:33:19;96058.84;;;-1.21;100.00
24962;BME280;12992;50.884;13.668;2024-01-16T03:35:44;96069.09;;;-1.18;100.00
24962;BME280;12992;50.884;13.668;2024-01-16T03:38:09;96058.63;;;-1.19;100.00
24962;BME280;12992;50.884;13.668;2024-01-16T03:40:35;96060.44;;;-1.13;100.00
24962;BME280;12992;50.884;13.668;2024-01-16T03:43:00;96067.44;;;-1.12;100.00
24962;BME280;12992;50.884;13.668;2024-01-16T03:45:26;96060.81;;;-1.09;100.00
24962;BME280;12992;50.884;13.668;2024-01-16T03:47:51;96049.31;;;-1.10;100.00
24962;BME280;12992;50.884;13.668;2024-01-16T03:50:17;96051.81;;;-1.15;100.00
24962;BME280;12992;50.884;13.668;2024-01-16T03:52:42;96050.97;;;-1.16;100.00
24962;BME280;12992;50.884;13.668;2024-01-16T03:55:07;96052.84;;;-1.16;100.00
24962;BME280;12992;50.884;13.668;2024-01-16T03:57:33;96053.03;;;-1.11;100.00
24962;BME280;12992;50.884;13.668;2024-01-16T03:59:58;96068.22;;;-1.05;100.00
24962;BME280;12992;50.884;13.668;2024-01-16T04:02:23;96070.44;;;-1.02;100.00
24962;BME280;12992;50.884;13.668;2024-01-16T04:04:49;96068.97;;;-0.98;100.00
24962;BME280;12992;50.884;13.668;2024-01-16T04:07:14;96073.50;;;-0.98;100.00
24962;BME280;12992;50.884;13.668;2024-01-16T04:09:39;96066.16;;;-1.03;100.00
24962;BME280;12992;50.884;13.668;2024-01-16T04:12:05;96070.88;;;-1.05;100.00
24962;BME280;12992;50.884;13.668;2024-01-16T04:14:33;96080.09;;;-1.01;100.00
24962;BME280;12992;50.884;13.668;2024-01-16T04:16:58;96075.56;;;-0.94;100.00
24962;BME280;12992;50.884;13.668;2024-01-16T04:19:23;96063.44;;;-0.96;100.00
24962;BME280;12992;50.884;13.668;2024-01-16T04:21:49;96081.50;;;-0.98;100.00
24962;BME280;12992;50.884;13.668;2024-01-16T04:24:14;96075.13;;;-0.97;100.00
24962;BME280;12992;50.884;13.668;2024-01-16T04:26:39;96072.91;;;-1.00;100.00
24962;BME280;12992;50.884;13.668;2024-01-16T04:29:05;96077.63;;;-0.96;100.00
24962;BME280;12992;50.884;13.668;2024-01-16T04:31:30;96080.09;;;-1.01;100.00
24962;BME280;12992;50.884;13.668;2024-01-16T04:33:56;96096.13;;;-1.01;100.00
24962;BME280;12992;50.884;13.668;2024-01-16T04:36:21;96088.13;;;-1.01;100.00
24962;BME280;12992;50.884;13.668;2024-01-16T04:38:47;96086.28;;;-1.07;100.00
24962;BME280;12992;50.884;13.668;2024-01-16T04:41:12;96082.44;;;-1.18;100.00
24962;BME280;12992;50.884;13.668;2024-01-16T04:43:37;96099.13;;;-1.22;100.00
24962;BME280;12992;50.884;13.668;2024-01-16T04:46:03;96106.09;;;-1.21;100.00
24962;BME280;12992;50.884;13.668;2024-01-16T04:48:28;96112.03;;;-1.19;100.00
24962;BME280;12992;50.884;13.668;2024-01-16T04:50:53;96131.94;;;-1.15;100.00
24962;BME280;12992;50.884;13.668;2024-01-16T04:53:19;96121.31;;;-1.28;100.00
24962;BME280;12992;50.884;13.668;2024-01-16T04:55:44;96135.28;;;-1.33;100.00
24962;BME280;12992;50.884;13.668;2024-01-16T04:58:10;96131.19;;;-1.29;100.00
24962;BME280;12992;50.884;13.668;2024-01-16T05:00:35;96134.47;;;-1.27;100.00
24962;BME280;12992;50.884;13.668;2024-01-16T05:03:03;96125.41;;;-1.26;100.00
24962;BME280;12992;50.884;13.668;2024-01-16T05:05:29;96130.38;;;-1.29;100.00
24962;BME280;12992;50.884;13.668;2024-01-16T05:07:55;96120.50;;;-1.35;100.00
24962;BME280;12992;50.884;13.668;2024-01-16T05:10:20;96118.91;;;-1.43;100.00
24962;BME280;12992;50.884;13.668;2024-01-16T05:12:45;96122.00;;;-1.46;100.00
24962;BME280;12992;50.884;13.668;2024-01-16T05:15:11;96109.50;;;-1.59;100.00
24962;BME280;12992;50.884;13.668;2024-01-16T05:17:36;96114.03;;;-1.66;100.00
24962;BME280;12992;50.884;13.668;2024-01-16T05:20:02;96118.94;;;-1.63;100.00
24962;BME280;12992;50.884;13.668;2024-01-16T05:22:29;96114.84;;;-1.65;100.00
24962;BME280;12992;50.884;13.668;2024-01-16T05:24:54;96111.97;;;-1.64;100.00
24962;BME280;12992;50.884;13.668;2024-01-16T05:27:19;96142.75;;;-1.61;100.00
24962;BME280;12992;50.884;13.668;2024-01-16T05:29:45;96130.00;;;-1.59;100.00
24962;BME280;12992;50.884;13.668;2024-01-16T05:32:10;96139.25;;;-1.49;100.00
24962;BME280;12992;50.884;13.668;2024-01-16T05:34:36;96150.13;;;-1.44;100.00
24962;BME280;12992;50.884;13.668;2024-01-16T05:37:01;96149.06;;;-1.36;100.00
24962;BME280;12992;50.884;13.668;2024-01-16T05:39:26;96148.84;;;-1.28;100.00
24962;BME280;12992;50.884;13.668;2024-01-16T05:41:52;96151.31;;;-1.26;100.00
24962;BME280;12992;50.884;13.668;2024-01-16T05:44:17;96152.56;;;-1.29;100.00
24962;BME280;12992;50.884;13.668;2024-01-16T05:46:42;96165.25;;;-1.24;100.00
24962;BME280;12992;50.884;13.668;2024-01-16T05:49:08;96153.81;;;-1.31;100.00
24962;BME280;12992;50.884;13.668;2024-01-16T05:51:33;96168.38;;;-1.34;100.00
24962;BME280;12992;50.884;13.668;2024-01-16T05:53:58;96169.41;;;-1.28;100.00
24962;BME280;12992;50.884;13.668;2024-01-16T05:56:24;96161.97;;;-1.26;100.00
24962;BME280;12992;50.884;13.668;2024-01-16T05:58:49;96176.34;;;-1.21;100.00
24962;BME280;12992;50.884;13.668;2024-01-16T06:01:14;96168.97;;;-1.25;100.00
24962;BME280;12992;50.884;13.668;2024-01-16T06:03:40;96173.28;;;-1.24;100.00
24962;BME280;12992;50.884;13.668;2024-01-16T06:06:06;96179.25;;;-1.22;100.00
24962;BME280;12992;50.884;13.668;2024-01-16T06:08:33;96180.66;;;-1.20;100.00
24962;BME280;12992;50.884;13.668;2024-01-16T06:10:58;96173.69;;;-1.27;100.00
24962;BME280;12992;50.884;13.668;2024-01-16T06:13:23;96182.53;;;-1.33;100.00
24962;BME280;12992;50.884;13.668;2024-01-16T06:15:49;96186.88;;;-1.32;100.00
24962;BME280;12992;50.884;13.668;2024-01-16T06:18:14;96157.91;;;-1.42;100.00
24962;BME280;12992;50.884;13.668;2024-01-16T06:20:39;96189.78;;;-1.40;100.00
24962;BME280;12992;50.884;13.668;2024-01-16T06:23:05;96179.91;;;-1.40;100.00
24962;BME280;12992;50.884;13.668;2024-01-16T06:25:30;96193.25;;;-1.40;100.00
24962;BME280;12992;50.884;13.668;2024-01-16T06:27:55;96200.63;;;-1.35;100.00
24962;BME280;12992;50.884;13.668;2024-01-16T06:30:21;96187.50;;;-1.37;100.00
24962;BME280;12992;50.884;13.668;2024-01-16T06:32:48;96205.16;;;-1.36;100.00
24962;BME280;12992;50.884;13.668;2024-01-16T06:35:13;96202.25;;;-1.34;100.00
24962;BME280;12992;50.884;13.668;2024-01-16T06:37:39;96206.78;;;-1.28;100.00
24962;BME280;12992;50.884;13.668;2024-01-16T06:40:04;96211.69;;;-1.25;100.00
24962;BME280;12992;50.884;13.668;2024-01-16T06:42:30;96205.97;;;-1.29;100.00
24962;BME280;12992;50.884;13.668;2024-01-16T06:44:56;96205.56;;;-1.32;100.00
24962;BME280;12992;50.884;13.668;2024-01-16T06:47:22;96210.91;;;-1.32;100.00
24962;BME280;12992;50.884;13.668;2024-01-16T06:49:49;96218.28;;;-1.34;100.00
24962;BME280;12992;50.884;13.668;2024-01-16T06:52:14;96219.09;;;-1.34;100.00
24962;BME280;12992;50.884;13.668;2024-01-16T06:54:39;96218.28;;;-1.34;100.00
24962;BME280;12992;50.884;13.668;2024-01-16T06:57:05;96228.97;;;-1.34;100.00
24962;BME280;12992;50.884;13.668;2024-01-16T06:59:30;96232.28;;;-1.32;100.00
24962;BME280;12992;50.884;13.668;2024-01-16T07:01:55;96242.53;;;-1.29;100.00
24962;BME280;12992;50.884;13.668;2024-01-16T07:04:21;96241.28;;;-1.33;100.00
24962;BME280;12992;50.884;13.668;2024-01-16T07:06:46;96238.00;;;-1.35;100.00
24962;BME280;12992;50.884;13.668;2024-01-16T07:09:12;96251.56;;;-1.37;100.00
24962;BME280;12992;50.884;13.668;2024-01-16T07:11:38;96256.09;;;-1.37;100.00
24962;BME280;12992;50.884;13.668;2024-01-16T07:14:07;96268.00;;;-1.33;100.00
24962;BME280;12992;50.884;13.668;2024-01-16T07:16:32;96256.72;;;-1.35;100.00
24962;BME280;12992;50.884;13.668;2024-01-16T07:18:58;96266.34;;;-1.34;100.00
24962;BME280;12992;50.884;13.668;2024-01-16T07:21:23;96270.66;;;-1.33;100.00
24962;BME280;12992;50.884;13.668;2024-01-16T07:23:48;96273.56;;;-1.35;100.00
24962;BME280;12992;50.884;13.668;2024-01-16T07:26:14;96286.50;;;-1.32;100.00
24962;BME280;12992;50.884;13.668;2024-01-16T07:28:39;96276.66;;;-1.31;100.00
24962;BME280;12992;50.884;13.668;2024-01-16T07:31:05;96282.59;;;-1.29;100.00
24962;BME280;12992;50.884;13.668;2024-01-16T07:33:31;96282.38;;;-1.28;100.00
24962;BME280;12992;50.884;13.668;2024-01-16T07:35:56;96293.88;;;-1.27;100.00
24962;BME280;12992;50.884;13.668;2024-01-16T07:38:22;96287.72;;;-1.21;100.00
24962;BME280;12992;50.884;13.668;2024-01-16T07:40:47;96295.13;;;-1.23;100.00
24962;BME280;12992;50.884;13.668;2024-01-16T07:43:12;96296.34;;;-1.19;100.00
24962;BME280;12992;50.884;13.668;2024-01-16T07:45:38;96303.94;;;-1.16;100.00
24962;BME280;12992;50.884;13.668;2024-01-16T07:48:03;96301.25;;;-1.16;100.00
24962;BME280;12992;50.884;13.668;2024-01-16T07:50:29;96310.91;;;-1.08;100.00
24962;BME280;12992;50.884;13.668;2024-01-16T07:52:54;96308.03;;;-1.07;100.00
24962;BME280;12992;50.884;13.668;2024-01-16T07:55:19;96320.19;;;-1.11;100.00
24962;BME280;12992;50.884;13.668;2024-01-16T07:57:45;96319.16;;;-1.10;100.00
24962;BME280;12992;50.884;13.668;2024-01-16T08:00:10;96312.38;;;-1.12;100.00
24962;BME280;12992;50.884;13.668;2024-01-16T08:02:37;96320.59;;;-1.14;100.00
24962;BME280;12992;50.884;13.668;2024-01-16T08:05:03;96330.88;;;-1.04;100.00
24962;BME280;12992;50.884;13.668;2024-01-16T08:07:28;96333.13;;;-1.01;100.00
24962;BME280;12992;50.884;13.668;2024-01-16T08:09:54;96338.84;;;-0.98;100.00
24962;BME280;12992;50.884;13.668;2024-01-16T08:12:19;96331.25;;;-1.01;100.00
24962;BME280;12992;50.884;13.668;2024-01-16T08:14:44;96344.63;;;-0.94;100.00
24962;BME280;12992;50.884;13.668;2024-01-16T08:17:10;96342.34;;;-0.91;100.00
24962;BME280;12992;50.884;13.668;2024-01-16T08:19:35;96345.22;;;-0.92;100.00
24962;BME280;12992;50.884;13.668;2024-01-16T08:22:01;96339.88;;;-0.92;100.00
24962;BME280;12992;50.884;13.668;2024-01-16T08:24:27;96347.09;;;-0.86;100.00
24962;BME280;12992;50.884;13.668;2024-01-16T08:26:53;96334.31;;;-0.91;100.00
24962;BME280;12992;50.884;13.668;2024-01-16T08:29:18;96348.06;;;-0.80;99.79
24962;BME280;12992;50.884;13.668;2024-01-16T08:31:43;96342.34;;;-0.84;99.15
24962;BME280;12992;50.884;13.668;2024-01-16T08:34:09;96337.59;;;-0.82;98.96
24962;BME280;12992;50.884;13.668;2024-01-16T08:36:34;96348.50;;;-0.77;98.89
24962;BME280;12992;50.884;13.668;2024-01-16T08:38:59;96347.84;;;-0.66;98.13
24962;BME280;12992;50.884;13.668;2024-01-16T08:41:24;96346.00;;;-0.72;97.89
24962;BME280;12992;50.884;13.668;2024-01-16T08:43:50;96352.16;;;-0.71;97.46
24962;BME280;12992;50.884;13.668;2024-01-16T08:46:16;96347.47;;;-0.69;97.32
24962;BME280;12992;50.884;13.668;2024-01-16T08:48:41;96356.09;;;-0.61;96.76
24962;BME280;12992;50.884;13.668;2024-01-16T08:51:08;96353.59;;;-0.62;96.91
24962;BME280;12992;50.884;13.668;2024-01-16T08:53:37;96357.53;;;-0.71;96.71
24962;BME280;12992;50.884;13.668;2024-01-16T08:56:02;96373.56;;;-0.58;96.11
24962;BME280;12992;50.884;13.668;2024-01-16T08:58:27;96363.91;;;-0.59;95.31
24962;BME280;12992;50.884;13.668;2024-01-16T09:00:53;96368.63;;;-0.61;95.27
24962;BME280;12992;50.884;13.668;2024-01-16T09:03:18;96376.22;;;-0.51;95.21
24962;BME280;12992;50.884;13.668;2024-01-16T09:05:43;96370.22;;;-0.53;94.58
24962;BME280;12992;50.884;13.668;2024-01-16T09:08:09;96370.06;;;-0.59;94.93
24962;BME280;12992;50.884;13.668;2024-01-16T09:10:34;96371.88;;;-0.46;95.02
24962;BME280;12992;50.884;13.668;2024-01-16T09:12:59;96368.00;;;-0.57;95.47
24962;BME280;12992;50.884;13.668;2024-01-16T09:15:25;96374.81;;;-0.67;96.62
24962;BME280;12992;50.884;13.668;2024-01-16T09:17:50;96379.75;;;-0.77;98.22
24962;BME280;12992;50.884;13.668;2024-01-16T09:20:15;96383.44;;;-0.65;98.92
24962;BME280;12992;50.884;13.668;2024-01-16T09:22:42;96387.13;;;-0.66;98.80
24962;BME280;12992;50.884;13.668;2024-01-16T09:25:07;96388.38;;;-0.75;100.00
24962;BME280;12992;50.884;13.668;2024-01-16T09:27:33;96398.88;;;-0.61;100.00
24962;BME280;12992;50.884;13.668;2024-01-16T09:29:58;96403.56;;;-0.49;99.78
24962;BME280;12992;50.884;13.668;2024-01-16T09:32:23;96403.53;;;-0.36;99.58
24962;BME280;12992;50.884;13.668;2024-01-16T09:34:49;96396.53;;;-0.37;98.46
24962;BME280;12992;50.884;13.668;2024-01-16T09:37:14;96396.09;;;-0.21;97.60
24962;BME280;12992;50.884;13.668;2024-01-16T09:39:40;96373.84;;;-0.21;96.08
24962;BME280;12992;50.884;13.668;2024-01-16T09:42:06;96391.06;;;0.03;95.73
24962;BME280;12992;50.884;13.668;2024-01-16T09:44:32;96398.81;;;0.17;94.59
24962;BME280;12992;50.884;13.668;2024-01-16T09:46:57;96394.56;;;0.41;92.94
24962;BME280;12992;50.884;13.668;2024-01-16T09:49:23;96394.47;;;0.93;90.57
24962;BME280;12992;50.884;13.668;2024-01-16T09:51:49;96379.69;;;0.83;88.56
24962;BME280;12992;50.884;13.668;2024-01-16T09:54:14;96372.19;;;0.92;86.89
24962;BME280;12992;50.884;13.668;2024-01-16T09:56:42;96357.34;;;0.65;85.42
24962;BME280;12992;50.884;13.668;2024-01-16T09:59:09;96346.56;;;0.46;85.49
24962;BME280;12992;50.884;13.668;2024-01-16T10:01:36;96353.25;;;0.31;85.21
24962;BME280;12992;50.884;13.668;2024-01-16T10:04:02;96352.88;;;0.20;85.34
24962;BME280;12992;50.884;13.668;2024-01-16T10:06:27;96362.72;;;0.26;85.60
24962;BME280;12992;50.884;13.668;2024-01-16T10:08:53;96369.03;;;0.45;85.21
24962;BME280;12992;50.884;13.668;2024-01-16T10:11:18;96350.47;;;0.44;84.80
24962;BME280;12992;50.884;13.668;2024-01-16T10:13:44;96357.53;;;0.38;84.70
24962;BME280;12992;50.884;13.668;2024-01-16T10:16:09;96373.66;;;0.63;83.69
24962;BME280;12992;50.884;13.668;2024-01-16T10:18:34;96395.88;;;1.20;83.67
24962;BME280;12992;50.884;13.668;2024-01-16T10:21:00;96375.09;;;1.16;81.73
24962;BME280;12992;50.884;13.668;2024-01-16T10:23:27;96366.44;;;1.13;80.60
24962;BME280;12992;50.884;13.668;2024-01-16T10:26:09;96370.28;;;1.24;80.69
24962;BME280;12992;50.884;13.668;2024-01-16T10:28:35;96362.28;;;1.18;80.47
24962;BME280;12992;50.884;13.668;2024-01-16T10:31:02;96361.44;;;0.99;80.16
24962;BME280;12992;50.884;13.668;2024-01-16T10:33:28;96350.84;;;0.79;80.13
24962;BME280;12992;50.884;13.668;2024-01-16T10:36:08;96358.13;;;0.72;80.12
24962;BME280;12992;50.884;13.668;2024-01-16T10:38:37;96358.78;;;0.67;80.07
24962;BME280;12992;50.884;13.668;2024-01-16T10:41:09;96367.25;;;0.64;81.09
24962;BME280;12992;50.884;13.668;2024-01-16T10:43:34;96373.56;;;1.01;80.77
24962;BME280;12992;50.884;13.668;2024-01-16T10:46:16;96383.06;;;1.22;80.08
24962;BME280;12992;50.884;13.668;2024-01-16T10:48:58;96356.28;;;0.72;80.06
24962;BME280;12992;50.884;13.668;2024-01-16T10:51:26;96359.72;;;0.48;80.86
24962;BME280;12992;50.884;13.668;2024-01-16T10:53:58;96361.81;;;0.46;81.62
24962;BME280;12992;50.884;13.668;2024-01-16T10:56:23;96356.66;;;0.44;81.77
24962;BME280;12992;50.884;13.668;2024-01-16T11:01:27;96366.72;;;0.49;82.15
24962;BME280;12992;50.884;13.668;2024-01-16T11:03:54;96369.47;;;0.67;82.83
24962;BME280;12992;50.884;13.668;2024-01-16T11:06:22;96375.03;;;0.72;81.82
24962;BME280;12992;50.884;13.668;2024-01-16T11:08:48;96366.72;;;0.80;82.00
24962;BME280;12992;50.884;13.668;2024-01-16T11:11:15;96369.72;;;0.66;81.84
24962;BME280;12992;50.884;13.668;2024-01-16T11:13:40;96375.03;;;0.72;82.04
24962;BME280;12992;50.884;13.668;2024-01-16T11:16:07;96356.13;;;0.61;81.62
24962;BME280;12992;50.884;13.668;2024-01-16T11:18:34;96373.53;;;0.76;82.16
24962;BME280;12992;50.884;13.668;2024-01-16T11:21:02;96356.88;;;0.74;81.46
24962;BME280;12992;50.884;13.668;2024-01-16T11:23:29;96357.69;;;0.75;81.31
24962;BME280;12992;50.884;13.668;2024-01-16T11:25:55;96350.25;;;0.77;81.39
24962;BME280;12992;50.884;13.668;2024-01-16T11:28:20;96351.66;;;0.79;81.35
24962;BME280;12992;50.884;13.668;2024-01-16T11:30:51;96363.97;;;0.87;80.82
24962;BME280;12992;50.884;13.668;2024-01-16T11:35:57;96351.13;;;0.71;80.58
24962;BME280;12992;50.884;13.668;2024-01-16T11:38:24;96350.13;;;0.65;80.14
24962;BME280;12992;50.884;13.668;2024-01-16T11:40:52;96354.41;;;0.73;80.45
24962;BME280;12992;50.884;13.668;2024-01-16T11:45:58;96357.69;;;0.75;80.44
24962;BME280;12992;50.884;13.668;2024-01-16T11:48:24;96342.66;;;0.74;80.55
24962;BME280;12992;50.884;13.668;2024-01-16T11:50:50;96360.19;;;0.95;79.96
24962;BME280;12992;50.884;13.668;2024-01-16T11:53:37;96368.28;;;1.38;80.03
24962;BME280;12992;50.884;13.668;2024-01-16T11:59:08;96358.25;;;1.88;77.90
24962;BME280;12992;50.884;13.668;2024-01-16T12:01:38;96354.59;;;2.01;76.84
24962;BME280;12992;50.884;13.668;2024-01-16T12:04:07;96367.59;;;2.34;76.15
24962;BME280;12992;50.884;13.668;2024-01-16T12:06:34;96363.84;;;2.35;74.63
24962;BME280;12992;50.884;13.668;2024-01-16T12:09:16;96345.19;;;2.40;73.97
24962;BME280;12992;50.884;13.668;2024-01-16T12:11:43;96335.00;;;1.82;74.37
24962;BME280;12992;50.884;13.668;2024-01-16T12:14:13;96337.66;;;1.46;75.28
24962;BME280;12992;50.884;13.668;2024-01-16T12:16:39;96341.22;;;1.21;76.60
24962;BME280;12992;50.884;13.668;2024-01-16T12:19:07;96350.84;;;1.04;77.55
24962;BME280;12992;50.884;13.668;2024-01-16T12:21:44;96347.25;;;0.92;78.43
24962;BME280;12992;50.884;13.668;2024-01-16T12:24:10;96342.13;;;0.90;79.30
24962;BME280;12992;50.884;13.668;2024-01-16T12:26:36;96344.84;;;0.83;79.28
24962;BME280;12992;50.884;13.668;2024-01-16T12:29:01;96353.91;;;0.82;79.94
24962;BME280;12992;50.884;13.668;2024-01-16T12:31:27;96358.41;;;0.89;79.80
24962;BME280;12992;50.884;13.668;2024-01-16T12:34:04;96350.19;;;0.83;79.79
24962;BME280;12992;50.884;13.668;2024-01-16T12:36:29;96346.22;;;0.61;80.10
24962;BME280;12992;50.884;13.668;2024-01-16T12:38:54;96354.44;;;0.66;80.50
24962;BME280;12992;50.884;13.668;2024-01-16T12:41:22;96356.88;;;0.74;80.06
24962;BME280;12992;50.884;13.668;2024-01-16T12:43:50;96345.78;;;0.71;80.53
24962;BME280;12992;50.884;13.668;2024-01-16T12:46:15;96347.78;;;0.75;80.11
24962;BME280;12992;50.884;13.668;2024-01-16T12:48:41;96339.16;;;0.73;79.78
24962;BME280;12992;50.884;13.668;2024-01-16T12:51:06;96340.31;;;0.84;79.41